Terminal Aerodrome Forecast
Issued by NWS

Home | Current Version | Previous Version | Text Only | Print | Product List | Glossary Off
Versions: 1 2 3 4 5 6 7 8 9 10 11 12 13 14 15 16 17 18 19 20 21 22 23 24

416
FTUS45 KGGW 300520
TAFGDV
TAF
KGDV 300520Z 3006/0106 06007KT P6SM BKN070
     FM301600 06011KT P6SM BKN140
     FM301800 07013KT P6SM SCT080
     FM010300 06006KT P6SM FEW200
      AMD LTD TO CLD VIS AND WIND=

USA.gov is the U.S. government's official web portal to all federal, state and local government web resources and services.